Philipsburg, Montana
Current Conditions -  °F | °C
As of 6:53 PM on Friday 19 Dec 2014 (Local Time) from KBTM Reporting Station
Few Clouds Few Clouds  
Wind Chill: 30°   Ceiling: Unl
Heat Index: 30°   Visibility: 10mi
Dew Point: 27°   Wind: 3mph
Humidity: 88%   Direction: 340°NNW
Pressure: 29.92"   Gusts: NA
Location:  46.33°N, 113.29°W
Report Text: KBTM 200153Z AUTO 34003KT 10SM FEW090 FEW120 M01/M03 A2992 RMK AO2 SLP174 T10111028
Loading
Personal Weather Stations






























Interactive Weather Map New forecast layout! Learn more

10-Day Weather Forecast

Advertisements
Track Severe Weather on mobile